Terminal Aerodrome Forecast
Issued by NWS

Home | Current Version | Previous Version | Text Only | Print | Product List | Glossary On
Versions: 1 2 3 4 5 6 7 8 9 10 11 12 13 14 15 16 17 18 19 20 21 22 23 24 25 26 27 28 29 30 31 32 33 34 35
000
FTAK31 PAFA 181126
TAFAOT
TAF
PAOT 181126Z 1812/1912 05006KT P6SM OVC015
     FM181800 05010G18KT P6SM BKN015 OVC025
     FM190000 08015G25KT 4SM BR BKN015 OVC025
     FM190600 09020G30KT 2SM -SN BLSN BKN015 OVC025=

USA.gov is the U.S. government's official web portal to all federal, state and local government web resources and services.